Airport View

Enter AWOS ICAO identifier for current METAR.

ex. KFNL

KCEZ 031653Z AUTO 35015G23KT 10SM CLR 28/07 A3028 RMK AO2 SLP167 T02830067

3 Jul 2020 17:12

Frequency: 135.625

Phone: 970-564-0193

Other Area AWOS: KFMN - KDRO - KBDG - KTEX

TAF KFMN 031120Z 0312/0412 VRB06KT P6SM BKN150 FM032000 27011G19KT P6SM SCT120 FM040200 32010KT P6SM SCT120 FM040400 07008KT P6SM BKN130